TAF Text Data
IDs:
Format:
Raw Decoded Include METAR

Data at: 0107 UTC 14 May 2021

KCHO 132320Z 1400/1424 07008KT P6SM FEW120
  FM140300 00000KT P6SM FEW080
  FM141600 03004KT P6SM BKN060